Time;durP1;ratioP1;P1;durP2;ratioP2;P2;SDS_P1;SDS_P2;PMS_P1;PMS_P2;Temp;Humidity;BMP_temperature;BMP_pressure;BME280_temperature;BME280_humidity;BME280_pressure;Samples;Min_cycle;Max_cycle;Signal;HPM_P1;HPM_P2
2023/02/21 02:16:05;;;;;;;9.70;4.63;;;;;;;;;;5010045;28;20056;-72
2023/02/21 02:18:44;;;;;;;10.13;4.93;;;;;;;;;;5009874;28;20038;-73
2023/02/21 02:21:15;;;;;;;9.95;4.72;;;;;;;;;;5018462;28;20042;-72
2023/02/21 02:24:16;;;;;;;14.38;3.75;;;;;;;;;;5016401;28;20029;-73
2023/02/21 02:27:19;;;;;;;4.63;2.45;;;;;;;;;;5017169;28;20045;-73
2023/02/21 02:29:54;;;;;;;8.10;2.83;;;;;;;;;;5015873;28;20108;-73
2023/02/21 02:32:43;;;;;;;6.80;2.33;;;;;;;;;;5016091;28;20057;-76
2023/02/21 02:35:21;;;;;;;8.70;2.78;;;;;;;;;;5015066;28;20470;-73
2023/02/21 02:37:49;;;;;;;4.63;2.45;;;;;;;;;;5012602;28;20517;-73
2023/02/21 02:40:27;;;;;;;10.85;2.40;;;;;;;;;;5015552;28;20647;-73
2023/02/21 02:43:15;;;;;;;8.57;3.05;;;;;;;;;;5003299;28;20045;-74
2023/02/21 02:45:45;;;;;;;6.78;3.38;;;;;;;;;;5014763;28;20168;-74
2023/02/21 02:48:34;;;;;;;6.78;2.97;;;;;;;;;;5009432;28;20121;-73
2023/02/21 02:51:02;;;;;;;7.18;3.20;;;;;;;;;;5003632;28;20393;-73
2023/02/21 02:53:29;;;;;;;5.25;2.63;;;;;;;;;;5030664;28;20034;-72
2023/02/21 02:55:57;;;;;;;6.85;2.90;;;;;;;;;;5016976;28;20032;-72
2023/02/21 02:58:25;;;;;;;9.15;3.13;;;;;;;;;;5014520;28;20034;-73
2023/02/21 03:01:19;;;;;;;7.22;2.95;;;;;;;;;;5020588;28;20037;-72
2023/02/21 03:03:57;;;;;;;7.50;2.97;;;;;;;;;;5014605;28;20141;-73
2023/02/21 03:06:33;;;;;;;5.75;2.90;;;;;;;;;;5026384;28;20133;-72
2023/02/21 03:09:05;;;;;;;7.32;3.17;;;;;;;;;;5014466;28;20066;-72
2023/02/21 03:11:31;;;;;;;5.85;2.65;;;;;;;;;;5007523;28;20125;-73
2023/02/21 03:14:11;;;;;;;6.38;2.70;;;;;;;;;;5010853;28;20126;-73
2023/02/21 03:16:56;;;;;;;4.40;2.20;;;;;;;;;;5023386;28;20486;-72
2023/02/21 03:19:25;;;;;;;5.25;2.50;;;;;;;;;;5013410;28;20088;-72
2023/02/21 03:21:55;;;;;;;4.90;2.90;;;;;;;;;;5014119;28;20096;-72
2023/02/21 03:24:22;;;;;;;5.18;2.63;;;;;;;;;;5014805;28;20038;-75
2023/02/21 03:26:49;;;;;;;6.60;2.80;;;;;;;;;;5010532;28;20042;-72
2023/02/21 03:29:15;;;;;;;6.47;2.63;;;;;;;;;;5015908;28;20052;-74
2023/02/21 03:31:45;;;;;;;5.10;2.70;;;;;;;;;;5015714;28;20081;-72
2023/02/21 03:34:11;;;;;;;4.20;2.30;;;;;;;;;;5016439;28;20034;-73
2023/02/21 03:36:37;;;;;;;5.78;2.20;;;;;;;;;;5020540;28;20135;-74
2023/02/21 03:39:03;;;;;;;6.60;2.53;;;;;;;;;;5008353;28;20541;-72
2023/02/21 03:41:28;;;;;;;4.68;2.30;;;;;;;;;;5015853;28;20481;-72
2023/02/21 03:43:53;;;;;;;4.10;2.47;;;;;;;;;;5011991;28;20137;-72
2023/02/21 03:46:19;;;;;;;8.23;2.83;;;;;;;;;;5012393;28;20065;-72
2023/02/21 03:48:45;;;;;;;7.30;3.08;;;;;;;;;;5004803;28;20040;-73
2023/02/21 03:51:10;;;;;;;8.02;4.15;;;;;;;;;;5015807;28;20034;-73
2023/02/21 03:53:36;;;;;;;5.43;2.90;;;;;;;;;;4995719;28;20030;-73
2023/02/21 03:56:01;;;;;;;5.05;2.85;;;;;;;;;;5003898;28;20041;-72
2023/02/21 03:58:27;;;;;;;6.68;2.53;;;;;;;;;;5003357;28;20042;-72
2023/02/21 04:00:53;;;;;;;6.10;3.80;;;;;;;;;;5007368;28;20026;-73
2023/02/21 04:03:18;;;;;;;4.70;3.20;;;;;;;;;;5021582;28;20068;-73
2023/02/21 04:05:44;;;;;;;9.88;5.00;;;;;;;;;;5012155;28;20073;-72
2023/02/21 04:08:10;;;;;;;11.60;4.72;;;;;;;;;;5010478;28;20036;-73
2023/02/21 04:10:35;;;;;;;12.07;5.50;;;;;;;;;;5013616;28;20073;-73
2023/02/21 04:13:00;;;;;;;10.35;5.22;;;;;;;;;;5013668;28;20052;-73
2023/02/21 04:15:26;;;;;;;11.15;5.65;;;;;;;;;;5013415;28;20053;-74
2023/02/21 04:17:51;;;;;;;12.13;5.80;;;;;;;;;;5018610;28;20116;-73
2023/02/21 04:20:17;;;;;;;11.80;5.40;;;;;;;;;;5009783;28;20084;-73
2023/02/21 04:22:42;;;;;;;13.85;5.97;;;;;;;;;;5014262;28;20065;-72
2023/02/21 04:25:08;;;;;;;11.43;5.40;;;;;;;;;;5014302;28;20125;-74
2023/02/21 04:27:34;;;;;;;8.38;4.78;;;;;;;;;;5014241;28;20076;-72
2023/02/21 04:30:00;;;;;;;14.48;6.60;;;;;;;;;;5017414;28;20034;-73
2023/02/21 04:32:25;;;;;;;14.23;6.47;;;;;;;;;;5013897;28;20033;-72
2023/02/21 04:34:51;;;;;;;12.68;6.43;;;;;;;;;;5005342;28;20498;-72
2023/02/21 04:37:17;;;;;;;16.08;5.68;;;;;;;;;;5005802;28;20033;-72
2023/02/21 04:39:43;;;;;;;11.43;5.75;;;;;;;;;;5005306;28;20060;-72
2023/02/21 04:42:08;;;;;;;10.60;4.45;;;;;;;;;;5010374;28;20470;-73
2023/02/21 04:44:34;;;;;;;14.63;5.68;;;;;;;;;;5019913;28;20029;-72
2023/02/21 04:46:59;;;;;;;11.10;5.80;;;;;;;;;;5008532;28;20501;-72
2023/02/21 04:49:26;;;;;;;17.27;7.20;;;;;;;;;;5019658;28;20043;-73
2023/02/21 04:51:52;;;;;;;16.08;6.95;;;;;;;;;;5012932;28;20383;-73
2023/02/21 04:54:18;;;;;;;14.30;7.00;;;;;;;;;;5016473;28;20048;-73
2023/02/21 04:56:43;;;;;;;15.95;6.47;;;;;;;;;;5013552;28;20034;-72
2023/02/21 04:59:09;;;;;;;17.63;7.55;;;;;;;;;;5014374;28;20390;-73
2023/02/21 05:01:34;;;;;;;11.70;5.22;;;;;;;;;;5019033;28;20123;-73
2023/02/21 05:04:00;;;;;;;8.73;4.80;;;;;;;;;;5017779;28;20489;-73
2023/02/21 05:06:27;;;;;;;13.10;6.63;;;;;;;;;;5017233;28;20034;-74
2023/02/21 05:08:53;;;;;;;12.45;4.82;;;;;;;;;;5000164;28;20506;-74
2023/02/21 05:11:20;;;;;;;19.73;9.55;;;;;;;;;;5016465;28;20049;-73
2023/02/21 05:13:46;;;;;;;16.45;8.27;;;;;;;;;;5012935;28;20030;-73
2023/02/21 05:16:12;;;;;;;19.27;9.63;;;;;;;;;;5030169;28;20508;-72
2023/02/21 05:18:40;;;;;;;17.35;9.30;;;;;;;;;;5035131;28;20041;-72
2023/02/21 05:21:06;;;;;;;18.05;8.50;;;;;;;;;;5021592;28;20037;-72
2023/02/21 05:23:34;;;;;;;18.95;9.75;;;;;;;;;;5011345;28;20461;-73
2023/02/21 05:26:00;;;;;;;19.38;9.15;;;;;;;;;;5012191;28;20069;-73
2023/02/21 05:28:26;;;;;;;18.98;9.32;;;;;;;;;;5030915;28;20030;-72
2023/02/21 05:30:52;;;;;;;17.98;9.10;;;;;;;;;;5012954;28;20034;-73
2023/02/21 05:33:17;;;;;;;15.20;8.15;;;;;;;;;;5018525;28;20103;-72
2023/02/21 05:35:45;;;;;;;15.85;8.32;;;;;;;;;;5011386;28;20105;-73
2023/02/21 05:38:11;;;;;;;19.38;9.20;;;;;;;;;;5012960;28;20046;-72
2023/02/21 05:40:36;;;;;;;17.40;8.70;;;;;;;;;;5014303;28;20048;-74
2023/02/21 05:43:02;;;;;;;16.88;9.00;;;;;;;;;;5016925;28;20029;-73
2023/02/21 05:45:27;;;;;;;18.35;9.70;;;;;;;;;;5009943;28;20049;-72
2023/02/21 05:47:57;;;;;;;17.08;8.80;;;;;;;;;;5012649;28;20044;-72
2023/02/21 05:50:22;;;;;;;17.23;8.60;;;;;;;;;;5017985;28;20046;-73
2023/02/21 05:52:48;;;;;;;18.63;8.65;;;;;;;;;;5003912;28;20046;-73
2023/02/21 05:55:13;;;;;;;17.27;8.23;;;;;;;;;;5011204;28;20093;-73
2023/02/21 05:57:39;;;;;;;18.20;8.93;;;;;;;;;;5005659;28;20532;-73
2023/02/21 06:00:05;;;;;;;15.70;8.75;;;;;;;;;;5014081;28;20466;-73
2023/02/21 06:02:30;;;;;;;14.48;8.40;;;;;;;;;;5019310;28;20088;-76
2023/02/21 06:04:56;;;;;;;16.45;8.50;;;;;;;;;;5017869;28;20022;-73
2023/02/21 06:07:21;;;;;;;16.58;8.35;;;;;;;;;;5019052;28;20485;-72
2023/02/21 06:09:46;;;;;;;18.10;9.52;;;;;;;;;;5012843;28;20061;-73
2023/02/21 06:12:12;;;;;;;16.80;9.68;;;;;;;;;;5012770;28;20046;-73
2023/02/21 06:14:37;;;;;;;19.08;10.02;;;;;;;;;;5006311;28;20045;-74
2023/02/21 06:17:03;;;;;;;18.45;10.13;;;;;;;;;;5017030;28;20052;-73
2023/02/21 06:19:28;;;;;;;22.95;11.10;;;;;;;;;;5017255;28;20045;-73
2023/02/21 06:21:54;;;;;;;21.60;10.85;;;;;;;;;;5015514;28;20099;-74
2023/02/21 06:24:19;;;;;;;19.02;9.63;;;;;;;;;;5020477;28;20042;-73
2023/02/21 06:26:44;;;;;;;17.10;9.52;;;;;;;;;;5021386;28;20061;-73
2023/02/21 06:29:10;;;;;;;20.55;10.05;;;;;;;;;;5012688;28;20046;-75
2023/02/21 06:31:36;;;;;;;19.42;10.48;;;;;;;;;;5002509;28;20045;-73
2023/02/21 06:34:02;;;;;;;22.80;9.93;;;;;;;;;;5019090;28;20029;-73
2023/02/21 06:36:28;;;;;;;24.13;12.82;;;;;;;;;;5030947;28;20046;-72
2023/02/21 06:38:55;;;;;;;29.98;13.70;;;;;;;;;;5011138;28;20046;-72
2023/02/21 06:41:23;;;;;;;32.50;15.68;;;;;;;;;;5011473;28;20116;-73
2023/02/21 06:43:49;;;;;;;47.72;21.40;;;;;;;;;;5015181;28;20040;-73
2023/02/21 06:46:23;;;;;;;44.67;19.48;;;;;;;;;;5011159;28;20046;-73
2023/02/21 06:48:49;;;;;;;25.88;12.60;;;;;;;;;;5005812;28;20470;-72
2023/02/21 06:51:15;;;;;;;28.75;13.30;;;;;;;;;;5023042;28;20053;-73
2023/02/21 06:53:42;;;;;;;27.30;13.38;;;;;;;;;;5017428;28;20108;-73
2023/02/21 06:56:08;;;;;;;25.20;13.68;;;;;;;;;;5013206;28;20038;-73
2023/02/21 06:58:33;;;;;;;22.02;11.52;;;;;;;;;;5025459;28;20466;-73
2023/02/21 07:00:59;;;;;;;25.25;11.52;;;;;;;;;;5011988;28;20041;-73
2023/02/21 07:03:25;;;;;;;26.90;12.95;;;;;;;;;;5018622;28;20042;-72
2023/02/21 07:05:50;;;;;;;23.23;11.88;;;;;;;;;;5016425;28;20065;-73
2023/02/21 07:08:15;;;;;;;29.40;13.35;;;;;;;;;;5015513;28;20038;-73
2023/02/21 07:10:41;;;;;;;27.08;12.57;;;;;;;;;;5025274;28;20040;-73
2023/02/21 07:13:06;;;;;;;24.50;11.40;;;;;;;;;;5007638;28;20060;-73
2023/02/21 07:15:32;;;;;;;26.50;11.18;;;;;;;;;;5012815;28;20030;-73
2023/02/21 07:17:57;;;;;;;25.88;12.45;;;;;;;;;;5012344;28;20474;-73
2023/02/21 07:20:23;;;;;;;24.52;11.02;;;;;;;;;;5016051;28;20116;-73
2023/02/21 07:22:48;;;;;;;21.77;10.63;;;;;;;;;;5012759;28;20056;-73
2023/02/21 07:25:19;;;;;;;21.67;10.50;;;;;;;;;;5014340;28;20045;-73
2023/02/21 07:27:48;;;;;;;22.20;10.82;;;;;;;;;;5016911;28;20037;-72
2023/02/21 07:30:15;;;;;;;22.95;10.45;;;;;;;;;;5015342;28;20038;-73
2023/02/21 07:32:40;;;;;;;19.10;9.45;;;;;;;;;;5011703;28;20029;-73
2023/02/21 07:35:06;;;;;;;20.40;10.20;;;;;;;;;;5017679;28;20520;-72
2023/02/21 07:37:31;;;;;;;21.77;10.55;;;;;;;;;;5018512;28;20481;-73
2023/02/21 07:39:57;;;;;;;20.85;9.20;;;;;;;;;;5021188;28;20466;-73
2023/02/21 07:42:22;;;;;;;26.02;10.20;;;;;;;;;;5003275;28;20038;-73
2023/02/21 07:44:48;;;;;;;22.90;10.15;;;;;;;;;;5001907;28;20049;-72
2023/02/21 07:47:13;;;;;;;20.48;9.40;;;;;;;;;;5009358;28;20042;-73
2023/02/21 07:49:40;;;;;;;22.23;9.52;;;;;;;;;;5014793;28;20038;-73
2023/02/21 07:52:06;;;;;;;20.73;8.77;;;;;;;;;;5012800;28;20046;-73
2023/02/21 07:54:31;;;;;;;23.85;10.23;;;;;;;;;;5004812;28;20057;-73
2023/02/21 07:56:57;;;;;;;18.25;9.60;;;;;;;;;;5011629;28;20473;-73
2023/02/21 07:59:23;;;;;;;23.35;9.50;;;;;;;;;;5021609;28;20048;-73
2023/02/21 08:01:48;;;;;;;19.48;9.23;;;;;;;;;;5014708;28;20038;-73
2023/02/21 08:04:14;;;;;;;18.02;9.23;;;;;;;;;;5021381;28;20563;-73
2023/02/21 08:06:39;;;;;;;19.23;9.93;;;;;;;;;;5012179;28;20036;-73
2023/02/21 08:09:05;;;;;;;17.45;9.35;;;;;;;;;;5007420;28;20037;-73
2023/02/21 08:11:32;;;;;;;19.52;9.57;;;;;;;;;;5013253;28;20128;-73
2023/02/21 08:13:58;;;;;;;19.77;9.68;;;;;;;;;;5029106;28;20038;-73
2023/02/21 08:16:24;;;;;;;19.88;9.00;;;;;;;;;;5029640;28;20573;-73
2023/02/21 08:18:52;;;;;;;20.23;8.77;;;;;;;;;;5013322;28;20030;-73
2023/02/21 08:21:21;;;;;;;20.27;9.13;;;;;;;;;;5010202;28;20516;-73
2023/02/21 08:23:46;;;;;;;18.98;9.82;;;;;;;;;;5005500;28;20040;-74
2023/02/21 08:26:11;;;;;;;21.90;10.00;;;;;;;;;;4993340;28;20030;-73
2023/02/21 08:28:37;;;;;;;19.55;8.77;;;;;;;;;;5008524;28;20038;-73
2023/02/21 08:31:02;;;;;;;22.55;9.10;;;;;;;;;;5009993;28;20124;-76
2023/02/21 08:33:28;;;;;;;25.25;10.10;;;;;;;;;;5010740;28;20073;-73
2023/02/21 08:35:53;;;;;;;23.13;9.52;;;;;;;;;;5011024;28;20081;-73
2023/02/21 08:38:20;;;;;;;23.42;10.20;;;;;;;;;;4999578;28;20084;-73
2023/02/21 08:40:45;;;;;;;28.42;9.55;;;;;;;;;;5001323;28;20081;-72
2023/02/21 08:43:11;;;;;;;20.05;9.75;;;;;;;;;;5008197;28;20466;-73
2023/02/21 08:45:37;;;;;;;29.25;10.80;;;;;;;;;;5010023;28;20029;-74
2023/02/21 08:48:03;;;;;;;20.85;9.52;;;;;;;;;;5010664;28;20088;-73
2023/02/21 08:50:28;;;;;;;21.75;9.15;;;;;;;;;;5004891;28;20116;-78
2023/02/21 08:52:54;;;;;;;23.98;10.32;;;;;;;;;;5005447;28;20553;-79
2023/02/21 08:55:20;;;;;;;17.85;8.13;;;;;;;;;;5016145;28;20046;-72
2023/02/21 08:57:50;;;;;;;22.50;8.75;;;;;;;;;;5012676;28;20393;-74
2023/02/21 09:00:18;;;;;;;24.90;9.25;;;;;;;;;;5005304;28;20535;-73
2023/02/21 09:02:44;;;;;;;15.48;8.25;;;;;;;;;;5009163;28;20041;-74
2023/02/21 09:05:19;;;;;;;28.30;8.60;;;;;;;;;;5024805;28;20497;-74
2023/02/21 09:07:48;;;;;;;26.08;10.23;;;;;;;;;;4994305;28;20037;-74
2023/02/21 09:10:13;;;;;;;25.35;9.30;;;;;;;;;;5012778;28;20600;-76
2023/02/21 09:12:39;;;;;;;26.80;9.23;;;;;;;;;;5005924;28;20038;-75
2023/02/21 09:15:05;;;;;;;21.33;8.32;;;;;;;;;;5005365;28;20046;-75
2023/02/21 09:17:33;;;;;;;21.85;9.52;;;;;;;;;;5005304;28;20111;-74
2023/02/21 09:20:03;;;;;;;18.48;8.45;;;;;;;;;;5007417;28;20436;-74
2023/02/21 09:22:30;;;;;;;19.02;8.63;;;;;;;;;;5004249;28;20049;-74
2023/02/21 09:24:56;;;;;;;20.08;9.65;;;;;;;;;;5006262;28;20044;-74
2023/02/21 09:27:35;;;;;;;17.38;9.00;;;;;;;;;;5009406;28;20032;-73
2023/02/21 09:30:03;;;;;;;21.27;9.27;;;;;;;;;;4996472;28;20128;-73
2023/02/21 09:32:28;;;;;;;16.27;8.40;;;;;;;;;;5023974;28;20389;-77
2023/02/21 09:34:54;;;;;;;17.83;8.82;;;;;;;;;;5003234;28;20042;-73
2023/02/21 09:37:19;;;;;;;29.67;9.63;;;;;;;;;;5002976;28;20907;-73
2023/02/21 09:39:44;;;;;;;17.85;8.82;;;;;;;;;;4994362;28;20069;-73
2023/02/21 09:42:14;;;;;;;22.67;8.63;;;;;;;;;;5003473;28;20103;-74
2023/02/21 09:44:40;;;;;;;21.65;9.85;;;;;;;;;;4999441;28;20038;-73
2023/02/21 09:47:06;;;;;;;18.52;8.82;;;;;;;;;;5003029;28;20042;-77
2023/02/21 09:49:35;;;;;;;18.98;7.97;;;;;;;;;;5012939;28;20070;-74
2023/02/21 09:52:01;;;;;;;17.20;8.73;;;;;;;;;;5002764;28;20054;-74
2023/02/21 09:54:33;;;;;;;16.70;7.88;;;;;;;;;;5010907;28;20061;-74
2023/02/21 09:57:01;;;;;;;13.98;7.15;;;;;;;;;;5009755;28;20046;-75
2023/02/21 09:59:26;;;;;;;15.23;7.18;;;;;;;;;;5005380;28;20455;-73
2023/02/21 10:02:09;;;;;;;19.92;7.82;;;;;;;;;;4983307;28;20049;-78
2023/02/21 10:04:35;;;;;;;11.30;5.93;;;;;;;;;;5004539;28;20153;-76
2023/02/21 10:07:26;;;;;;;13.38;6.30;;;;;;;;;;5005183;28;20129;-73
2023/02/21 10:10:04;;;;;;;12.32;6.35;;;;;;;;;;4993959;28;20252;-73
2023/02/21 10:12:35;;;;;;;11.88;5.75;;;;;;;;;;5004687;28;20131;-74
2023/02/21 10:15:15;;;;;;;9.55;5.68;;;;;;;;;;5008782;28;20545;-74
2023/02/21 10:18:34;;;;;;;10.95;5.47;;;;;;;;;;5007268;28;20042;-73
2023/02/21 10:21:04;;;;;;;12.80;5.72;;;;;;;;;;4982946;28;20507;-78
2023/02/21 10:23:47;;;;;;;9.82;5.07;;;;;;;;;;5008077;28;20064;-77
2023/02/21 10:26:24;;;;;;;12.27;5.90;;;;;;;;;;5003637;28;20505;-74
2023/02/21 10:28:50;;;;;;;15.98;7.05;;;;;;;;;;5006727;28;20021;-74
2023/02/21 10:31:31;;;;;;;14.63;5.72;;;;;;;;;;5025319;28;20132;-74
2023/02/21 10:33:58;;;;;;;12.85;5.30;;;;;;;;;;5008580;28;20030;-74
2023/02/21 10:36:24;;;;;;;12.60;5.97;;;;;;;;;;5010423;28;20129;-74
2023/02/21 10:38:58;;;;;;;12.07;5.93;;;;;;;;;;4995393;28;20034;-75
2023/02/21 10:41:27;;;;;;;10.32;4.55;;;;;;;;;;5004873;28;20045;-74
2023/02/21 10:44:01;;;;;;;10.77;5.50;;;;;;;;;;4975650;28;20038;-75
2023/02/21 10:46:33;;;;;;;13.38;5.28;;;;;;;;;;5002839;28;20042;-73
2023/02/21 10:49:22;;;;;;;10.88;6.20;;;;;;;;;;5010363;28;20038;-74
2023/02/21 10:52:05;;;;;;;11.18;5.28;;;;;;;;;;4993599;28;20041;-76
2023/02/21 10:54:31;;;;;;;9.50;5.10;;;;;;;;;;5025443;28;20046;-73
2023/02/21 10:56:58;;;;;;;12.23;6.13;;;;;;;;;;5009991;28;20083;-74
2023/02/21 10:59:26;;;;;;;11.77;5.57;;;;;;;;;;4991937;28;20073;-74
2023/02/21 11:01:52;;;;;;;11.75;5.63;;;;;;;;;;5008626;28;20061;-74
2023/02/21 11:04:22;;;;;;;10.75;5.75;;;;;;;;;;5008060;28;20409;-74
2023/02/21 11:07:07;;;;;;;11.90;6.18;;;;;;;;;;5024834;28;20152;-74
2023/02/21 11:09:35;;;;;;;10.38;5.38;;;;;;;;;;5007389;28;20542;-73
2023/02/21 11:12:16;;;;;;;12.15;6.10;;;;;;;;;;5011166;28;20046;-78
2023/02/21 11:14:44;;;;;;;17.75;6.28;;;;;;;;;;5010675;28;20030;-73
2023/02/21 11:17:24;;;;;;;15.70;6.93;;;;;;;;;;5005647;28;20406;-74
2023/02/21 11:20:07;;;;;;;12.85;5.97;;;;;;;;;;5005153;28;20037;-78
2023/02/21 11:22:41;;;;;;;13.27;6.72;;;;;;;;;;5010422;28;20413;-74
2023/02/21 11:25:27;;;;;;;16.08;7.18;;;;;;;;;;5007499;28;20054;-73
2023/02/21 11:28:03;;;;;;;14.35;6.85;;;;;;;;;;5009940;28;20037;-73
2023/02/21 11:30:30;;;;;;;14.65;7.40;;;;;;;;;;5009072;28;20048;-74
2023/02/21 11:32:57;;;;;;;17.90;8.73;;;;;;;;;;5003218;28;20064;-74
2023/02/21 11:35:24;;;;;;;16.85;7.43;;;;;;;;;;5025939;28;20033;-73
2023/02/21 11:37:55;;;;;;;16.35;6.80;;;;;;;;;;5009704;28;20038;-74
2023/02/21 11:40:24;;;;;;;18.65;7.90;;;;;;;;;;5018319;28;20033;-73
2023/02/21 11:42:49;;;;;;;13.35;5.90;;;;;;;;;;5008727;28;20046;-75
2023/02/21 11:45:28;;;;;;;11.10;4.60;;;;;;;;;;5009782;28;20049;-73
2023/02/21 11:48:02;;;;;;;11.65;4.70;;;;;;;;;;4998595;28;20092;-74
2023/02/21 11:50:32;;;;;;;9.85;5.22;;;;;;;;;;5024267;28;20532;-75
2023/02/21 11:53:24;;;;;;;10.27;4.90;;;;;;;;;;5008840;28;20042;-75
2023/02/21 11:55:58;;;;;;;10.10;4.03;;;;;;;;;;5009862;28;20041;-73
2023/02/21 11:58:59;;;;;;;8.05;3.42;;;;;;;;;;5009176;28;20030;-74
2023/02/21 12:01:43;;;;;;;6.50;3.35;;;;;;;;;;4992729;28;20084;-73
2023/02/21 12:04:43;;;;;;;7.32;4.78;;;;;;;;;;5004490;28;20072;-74
2023/02/21 12:07:15;;;;;;;8.73;3.20;;;;;;;;;;5000137;28;20413;-74
2023/02/21 12:10:05;;;;;;;6.00;2.75;;;;;;;;;;5004159;28;20046;-73
2023/02/21 12:12:39;;;;;;;10.13;3.30;;;;;;;;;;5007783;28;20050;-74
2023/02/21 12:15:14;;;;;;;5.25;2.67;;;;;;;;;;5010707;28;20034;-76
2023/02/21 12:18:04;;;;;;;7.32;3.60;;;;;;;;;;5001076;28;20045;-74
2023/02/21 12:20:46;;;;;;;9.00;3.67;;;;;;;;;;5012090;28;20034;-73
2023/02/21 12:23:29;;;;;;;13.82;4.97;;;;;;;;;;5004527;28;20091;-74
2023/02/21 12:26:27;;;;;;;4.95;2.90;;;;;;;;;;5010295;28;20022;-73
2023/02/21 12:28:52;;;;;;;6.10;2.35;;;;;;;;;;5009976;28;20034;-73
2023/02/21 12:31:27;;;;;;;6.70;2.60;;;;;;;;;;5010508;28;20041;-74
2023/02/21 12:34:05;;;;;;;7.47;2.50;;;;;;;;;;5021049;28;20046;-74
2023/02/21 12:36:51;;;;;;;5.80;2.45;;;;;;;;;;5010468;28;20033;-73
2023/02/21 12:39:31;;;;;;;6.75;3.35;;;;;;;;;;5005652;28;20161;-74
2023/02/21 12:42:24;;;;;;;8.20;3.17;;;;;;;;;;5010192;28;20548;-74
2023/02/21 12:44:55;;;;;;;5.20;2.60;;;;;;;;;;5009803;28;20052;-75
2023/02/21 12:47:31;;;;;;;5.75;2.90;;;;;;;;;;5008239;28;20421;-74
2023/02/21 12:50:01;;;;;;;5.30;2.78;;;;;;;;;;5008904;28;20034;-74
2023/02/21 12:52:40;;;;;;;5.68;3.10;;;;;;;;;;5004145;28;20046;-74
2023/02/21 12:55:23;;;;;;;4.72;2.78;;;;;;;;;;5006940;28;20388;-78
2023/02/21 12:57:59;;;;;;;5.28;3.00;;;;;;;;;;5008205;28;20026;-74
2023/02/21 13:00:37;;;;;;;5.38;2.75;;;;;;;;;;5025122;28;20485;-73
2023/02/21 13:03:40;;;;;;;15.88;10.10;;;;;;;;;;5016753;28;20038;-74
2023/02/21 13:06:26;;;;;;;40.35;25.13;;;;;;;;;;5004402;28;20065;-74
2023/02/21 13:09:09;;;;;;;14.63;7.00;;;;;;;;;;5006220;28;20152;-74
2023/02/21 13:12:00;;;;;;;8.13;4.40;;;;;;;;;;5002872;28;20120;-73
2023/02/21 13:14:33;;;;;;;12.18;6.10;;;;;;;;;;5006775;28;20159;-74
2023/02/21 13:16:59;;;;;;;10.73;4.60;;;;;;;;;;4999438;28;20065;-74
2023/02/21 13:19:24;;;;;;;7.38;3.90;;;;;;;;;;5014808;28;20056;-73
2023/02/21 13:22:09;;;;;;;7.50;4.15;;;;;;;;;;5001936;28;20041;-78
2023/02/21 13:24:44;;;;;;;8.55;4.07;;;;;;;;;;5015414;28;20049;-74
2023/02/21 13:27:28;;;;;;;8.75;4.45;;;;;;;;;;5002373;28;20367;-74
2023/02/21 13:30:03;;;;;;;18.58;7.43;;;;;;;;;;5005065;28;20121;-74
2023/02/21 13:32:37;;;;;;;14.40;9.38;;;;;;;;;;5004575;28;20125;-74
2023/02/21 13:35:06;;;;;;;9.65;4.60;;;;;;;;;;4994464;28;20039;-73
2023/02/21 13:37:33;;;;;;;9.07;4.93;;;;;;;;;;4998335;28;20037;-78
2023/02/21 13:40:06;;;;;;;8.27;4.78;;;;;;;;;;4998805;28;20041;-74
2023/02/21 13:42:33;;;;;;;11.07;6.03;;;;;;;;;;5005397;28;20042;-74
2023/02/21 13:45:21;;;;;;;12.65;7.10;;;;;;;;;;4999208;28;20038;-73
2023/02/21 13:47:56;;;;;;;8.77;5.03;;;;;;;;;;5004129;28;20105;-74
2023/02/21 13:50:37;;;;;;;8.75;5.10;;;;;;;;;;5016814;28;20061;-74
2023/02/21 13:53:12;;;;;;;8.65;4.90;;;;;;;;;;5009108;28;20073;-74
2023/02/21 13:55:38;;;;;;;7.55;4.97;;;;;;;;;;5005479;28;20292;-73
2023/02/21 13:58:06;;;;;;;9.35;5.38;;;;;;;;;;5000291;28;20042;-73
2023/02/21 14:00:31;;;;;;;8.40;5.03;;;;;;;;;;5005728;28;20042;-73
2023/02/21 14:03:05;;;;;;;7.18;4.25;;;;;;;;;;5008907;28;20049;-74
2023/02/21 14:05:43;;;;;;;9.80;5.50;;;;;;;;;;5009092;28;20108;-73
2023/02/21 14:08:28;;;;;;;8.50;5.45;;;;;;;;;;5000983;28;20040;-73
2023/02/21 14:11:00;;;;;;;7.13;4.43;;;;;;;;;;5004499;28;20111;-73
2023/02/21 14:13:34;;;;;;;16.35;9.85;;;;;;;;;;5009687;28;20030;-74
2023/02/21 14:16:06;;;;;;;;;;;;;;;;;;5009272;28;20042;-76
2023/02/21 14:18:38;;;;;;;8.52;4.18;;;;;;;;;;5008960;28;19948;-76
2023/02/21 14:21:23;;;;;;;5.82;4.18;;;;;;;;;;5008408;28;20042;-74
2023/02/21 14:23:51;;;;;;;7.70;4.45;;;;;;;;;;5008638;28;20513;-74
2023/02/21 14:26:32;;;;;;;7.13;4.22;;;;;;;;;;5003951;28;20034;-74
2023/02/21 14:28:57;;;;;;;7.80;4.57;;;;;;;;;;5006731;28;20061;-75
2023/02/21 14:31:47;;;;;;;7.90;4.25;;;;;;;;;;5008932;28;20080;-73
2023/02/21 14:34:14;;;;;;;8.50;5.07;;;;;;;;;;5008457;28;20042;-73
2023/02/21 14:36:40;;;;;;;9.07;4.97;;;;;;;;;;5002337;28;20046;-74
2023/02/21 14:39:06;;;;;;;13.98;4.97;;;;;;;;;;5008019;28;20512;-73
2023/02/21 14:41:55;;;;;;;10.10;5.68;;;;;;;;;;5001456;28;20042;-74
2023/02/21 14:44:33;;;;;;;10.00;5.20;;;;;;;;;;4999957;28;20061;-73
2023/02/21 14:47:11;;;;;;;9.73;5.30;;;;;;;;;;4980537;28;20040;-75
2023/02/21 14:49:52;;;;;;;10.98;6.20;;;;;;;;;;5008808;28;21015;-74
2023/02/21 14:52:45;;;;;;;11.20;6.82;;;;;;;;;;4995063;28;20158;-74
2023/02/21 14:55:47;;;;;;;11.65;6.18;;;;;;;;;;5006178;28;20046;-74
2023/02/21 14:58:48;;;;;;;10.25;5.97;;;;;;;;;;4996869;28;20039;-73
2023/02/21 15:01:28;;;;;;;9.32;5.40;;;;;;;;;;4981774;28;20061;-74
2023/02/21 15:04:09;;;;;;;10.15;5.85;;;;;;;;;;4996492;28;20038;-75
2023/02/21 15:06:35;;;;;;;9.82;5.70;;;;;;;;;;5005308;28;20041;-73
2023/02/21 15:09:17;;;;;;;11.55;5.75;;;;;;;;;;5000978;28;20438;-75
2023/02/21 15:11:43;;;;;;;9.95;6.03;;;;;;;;;;5013551;28;20048;-74
2023/02/21 15:14:24;;;;;;;13.05;6.18;;;;;;;;;;5006530;28;20033;-73
2023/02/21 15:16:53;;;;;;;10.25;5.60;;;;;;;;;;4998567;28;20034;-74
2023/02/21 15:19:30;;;;;;;11.88;6.43;;;;;;;;;;5006913;28;20172;-73
2023/02/21 15:22:21;;;;;;;11.95;6.22;;;;;;;;;;5001230;28;20042;-74
2023/02/21 15:24:56;;;;;;;11.05;6.22;;;;;;;;;;5011779;28;20034;-75
2023/02/21 15:27:21;;;;;;;14.35;7.80;;;;;;;;;;5002265;28;20133;-74
2023/02/21 15:30:03;;;;;;;17.63;8.85;;;;;;;;;;5007870;28;20112;-74
2023/02/21 15:32:29;;;;;;;15.18;8.32;;;;;;;;;;5000816;28;20509;-74
2023/02/21 15:34:55;;;;;;;14.02;6.72;;;;;;;;;;5004035;28;20029;-75
2023/02/21 15:37:24;;;;;;;9.48;6.00;;;;;;;;;;5017658;28;20590;-73
2023/02/21 15:39:53;;;;;;;11.07;5.82;;;;;;;;;;5003771;28;20084;-73
2023/02/21 15:42:18;;;;;;;8.18;4.90;;;;;;;;;;5008452;28;20034;-78
2023/02/21 15:44:48;;;;;;;7.97;4.95;;;;;;;;;;5011979;28;20132;-75
2023/02/21 15:47:17;;;;;;;8.55;5.70;;;;;;;;;;5009519;28;20478;-73
2023/02/21 15:50:00;;;;;;;7.72;4.40;;;;;;;;;;5008846;28;20072;-75
2023/02/21 15:52:31;;;;;;;11.45;4.32;;;;;;;;;;5004252;28;20077;-73
2023/02/21 15:55:19;;;;;;;11.50;5.70;;;;;;;;;;5018952;28;20044;-77
2023/02/21 15:57:45;;;;;;;9.02;5.40;;;;;;;;;;5009798;28;20042;-76
2023/02/21 16:00:28;;;;;;;10.25;5.80;;;;;;;;;;5007609;28;20033;-73
2023/02/21 16:03:31;;;;;;;12.07;5.65;;;;;;;;;;5004502;28;20833;-74
2023/02/21 16:06:28;;;;;;;9.32;5.85;;;;;;;;;;5013144;28;20069;-73
2023/02/21 16:08:57;;;;;;;12.70;5.35;;;;;;;;;;4999935;28;20049;-74
2023/02/21 16:11:25;;;;;;;11.43;6.22;;;;;;;;;;5000322;28;20506;-73
2023/02/21 16:13:51;;;;;;;10.73;6.47;;;;;;;;;;5000904;28;20037;-74
2023/02/21 16:16:16;;;;;;;10.88;5.95;;;;;;;;;;5010180;28;20060;-73
2023/02/21 16:18:42;;;;;;;10.05;5.93;;;;;;;;;;4984692;28;20038;-78
2023/02/21 16:21:26;;;;;;;11.60;6.18;;;;;;;;;;5004300;28;20069;-73
2023/02/21 16:23:52;;;;;;;18.42;9.52;;;;;;;;;;5001100;28;20046;-73
2023/02/21 16:26:26;;;;;;;17.63;9.32;;;;;;;;;;5009034;28;20046;-77
2023/02/21 16:28:54;;;;;;;14.13;7.30;;;;;;;;;;5017318;28;20545;-73
2023/02/21 16:31:29;;;;;;;12.82;6.60;;;;;;;;;;5007913;28;20390;-77
2023/02/21 16:33:55;;;;;;;14.10;7.18;;;;;;;;;;5014355;28;20030;-74
2023/02/21 16:36:26;;;;;;;12.23;6.60;;;;;;;;;;4998004;28;20045;-73
2023/02/21 16:38:53;;;;;;;11.52;6.47;;;;;;;;;;4995636;28;20034;-73
2023/02/21 16:41:19;;;;;;;13.70;6.72;;;;;;;;;;5005070;28;20026;-74
2023/02/21 16:43:45;;;;;;;14.88;6.47;;;;;;;;;;4996944;28;20491;-73
2023/02/21 16:46:11;;;;;;;11.30;6.00;;;;;;;;;;5000486;28;20080;-73
2023/02/21 16:48:37;;;;;;;10.95;5.65;;;;;;;;;;4992622;28;20034;-74
2023/02/21 16:51:06;;;;;;;9.43;5.13;;;;;;;;;;4991522;28;20054;-73
2023/02/21 16:53:32;;;;;;;10.02;5.47;;;;;;;;;;5003353;28;20439;-79
2023/02/21 16:55:59;;;;;;;10.77;6.15;;;;;;;;;;5002302;28;20069;-74
2023/02/21 16:58:31;;;;;;;12.63;5.97;;;;;;;;;;5002036;28;20041;-73
2023/02/21 17:00:59;;;;;;;12.00;5.85;;;;;;;;;;4997420;28;20034;-73
2023/02/21 17:03:27;;;;;;;14.68;5.75;;;;;;;;;;5021647;28;20034;-73
2023/02/21 17:05:53;;;;;;;12.27;5.90;;;;;;;;;;5000326;28;20062;-73
2023/02/21 17:08:18;;;;;;;10.20;5.80;;;;;;;;;;5006661;28;20057;-74
2023/02/21 17:10:44;;;;;;;13.18;6.22;;;;;;;;;;5023340;28;20056;-73
2023/02/21 17:13:09;;;;;;;11.57;6.03;;;;;;;;;;5009706;28;20038;-73